createdAt,value
2019-01-15T00:00:43.117Z,22.60
2019-01-15T00:03:12.281Z,22.60
2019-01-15T00:05:41.345Z,22.60
2019-01-15T00:08:10.418Z,22.60
2019-01-15T00:10:39.513Z,22.60
2019-01-15T00:13:08.606Z,22.70
2019-01-15T00:15:37.664Z,22.70
2019-01-15T00:18:06.728Z,22.70
2019-01-15T00:20:35.788Z,22.70
2019-01-15T00:23:04.859Z,22.70
2019-01-15T00:25:33.917Z,22.70
2019-01-15T00:28:03.013Z,22.70
2019-01-15T00:30:32.080Z,22.80
2019-01-15T00:33:01.204Z,22.80
2019-01-15T00:35:30.293Z,22.80
2019-01-15T00:37:59.354Z,22.80
2019-01-15T00:40:28.399Z,22.90
2019-01-15T00:42:57.486Z,22.90
2019-01-15T00:45:26.550Z,22.90
2019-01-15T00:47:55.604Z,22.90
2019-01-15T00:50:24.687Z,22.90
2019-01-15T00:52:53.757Z,22.90
2019-01-15T00:55:22.852Z,23.00
2019-01-15T00:57:51.919Z,23.00
2019-01-15T01:00:22.178Z,23.00
2019-01-15T01:02:51.657Z,23.00
2019-01-15T01:05:20.893Z,23.00
2019-01-15T01:07:50.012Z,23.10
2019-01-15T01:10:19.179Z,23.10
2019-01-15T01:12:48.246Z,23.10
2019-01-15T01:15:18.191Z,23.10
2019-01-15T01:17:47.336Z,23.10
2019-01-15T01:20:22.317Z,23.10
2019-01-15T01:22:52.050Z,23.20
2019-01-15T01:25:21.149Z,23.20
2019-01-15T01:27:50.192Z,23.20
2019-01-15T01:30:21.156Z,23.30
2019-01-15T01:32:50.205Z,23.30
2019-01-15T01:35:19.302Z,23.30
2019-01-15T01:37:48.357Z,23.30
2019-01-15T01:40:19.234Z,23.40
2019-01-15T01:42:48.467Z,23.40
2019-01-15T01:45:18.045Z,23.40
2019-01-15T01:47:48.200Z,23.40
2019-01-15T01:53:44.867Z,23.40
2019-01-15T01:56:13.950Z,23.50
2019-01-15T01:58:43.015Z,23.50
2019-01-15T02:01:12.172Z,23.50
2019-01-15T02:03:41.290Z,23.50
2019-01-15T02:06:10.346Z,23.50
2019-01-15T02:08:39.380Z,23.60
2019-01-15T02:11:08.427Z,23.60
2019-01-15T02:13:37.569Z,23.60
2019-01-15T02:16:06.682Z,23.60
2019-01-15T02:18:35.808Z,23.60
2019-01-15T02:24:32.796Z,23.70
2019-01-15T02:27:03.613Z,23.70
2019-01-15T02:29:32.761Z,23.70
2019-01-15T02:32:01.833Z,23.80
2019-01-15T02:34:30.888Z,23.80
2019-01-15T02:36:59.945Z,23.80
2019-01-15T02:39:29.038Z,23.80
2019-01-15T02:41:58.117Z,23.80
2019-01-15T02:44:27.205Z,23.80
2019-01-15T02:46:56.282Z,23.80
2019-01-15T02:49:25.333Z,23.80
2019-01-15T02:51:54.414Z,23.80
2019-01-15T02:57:51.453Z,23.90
2019-01-15T03:00:25.435Z,23.90
2019-01-15T03:02:54.506Z,23.90
2019-01-15T03:05:23.581Z,23.90
2019-01-15T03:07:52.652Z,23.90
2019-01-15T03:10:22.200Z,23.90
2019-01-15T03:12:55.864Z,24.00
2019-01-15T03:15:24.121Z,24.00
2019-01-15T03:17:53.401Z,23.90
2019-01-15T03:20:22.752Z,23.90
2019-01-15T03:22:51.904Z,23.90
2019-01-15T03:25:20.978Z,23.90
2019-01-15T03:27:50.098Z,24.00
2019-01-15T03:30:23.894Z,24.00
2019-01-15T03:32:53.040Z,24.00
2019-01-15T03:35:22.275Z,24.00
2019-01-15T03:37:51.405Z,24.00
2019-01-15T03:40:25.130Z,24.00
2019-01-15T03:42:54.244Z,24.00
2019-01-15T03:45:23.298Z,24.00
2019-01-15T03:47:52.360Z,24.00
2019-01-15T03:50:21.587Z,24.00
2019-01-15T03:52:51.865Z,24.00
2019-01-15T03:55:20.929Z,24.00
2019-01-15T03:57:49.994Z,24.00
2019-01-15T04:00:21.044Z,24.00
2019-01-15T04:02:51.186Z,24.00
2019-01-15T04:05:20.359Z,24.00
2019-01-15T04:07:52.627Z,24.00
2019-01-15T04:10:21.733Z,24.00
2019-01-15T04:12:50.768Z,24.00
2019-01-15T04:15:19.839Z,24.00
2019-01-15T04:17:49.924Z,24.00
2019-01-15T04:20:18.969Z,24.00
2019-01-15T04:22:48.026Z,24.00
2019-01-15T04:25:17.107Z,24.00
2019-01-15T04:27:46.170Z,24.10
2019-01-15T04:30:20.067Z,24.10
2019-01-15T04:32:49.138Z,24.00
2019-01-15T04:35:18.290Z,24.10
2019-01-15T04:37:47.376Z,24.10
2019-01-15T04:40:18.560Z,24.10
2019-01-15T04:42:47.615Z,24.10
2019-01-15T04:45:18.059Z,24.10
2019-01-15T04:47:47.129Z,24.10
2019-01-15T04:50:16.848Z,24.10
2019-01-15T04:52:50.359Z,24.00
2019-01-15T04:55:19.448Z,24.00
2019-01-15T04:57:48.514Z,24.00
2019-01-15T05:00:18.228Z,24.00
2019-01-15T05:02:47.566Z,24.00
2019-01-15T05:05:17.125Z,24.00
2019-01-15T05:07:46.162Z,24.00
2019-01-15T05:10:15.757Z,24.00
2019-01-15T05:12:44.826Z,24.00
2019-01-15T05:15:14.460Z,24.00
2019-01-15T05:17:43.607Z,24.00
2019-01-15T05:20:13.937Z,24.00
2019-01-15T05:22:43.014Z,24.00
2019-01-15T05:25:17.019Z,24.00
2019-01-15T05:27:46.074Z,24.00
2019-01-15T05:30:20.568Z,24.00
2019-01-15T05:32:49.719Z,24.00
2019-01-15T05:35:18.838Z,24.00
2019-01-15T05:37:47.896Z,24.00
2019-01-15T05:40:17.438Z,24.00
2019-01-15T05:42:46.505Z,24.00
2019-01-15T05:45:32.090Z,24.00
2019-01-15T05:48:07.390Z,23.90
2019-01-15T05:51:04.537Z,24.00
2019-01-15T05:53:33.566Z,24.00
2019-01-15T05:56:02.639Z,24.00
2019-01-15T05:58:31.670Z,24.00
2019-01-15T06:01:00.773Z,24.00
2019-01-15T06:03:29.823Z,24.00
2019-01-15T06:05:58.878Z,23.90
2019-01-15T06:08:27.963Z,24.00
2019-01-15T06:10:57.046Z,24.00
2019-01-15T06:13:26.066Z,24.00
2019-01-15T06:15:55.113Z,24.00
2019-01-15T06:18:24.180Z,23.90
2019-01-15T06:20:53.251Z,23.90
2019-01-15T06:23:22.304Z,24.00
2019-01-15T06:25:51.450Z,24.00
2019-01-15T06:28:20.586Z,24.00
2019-01-15T06:30:49.842Z,24.00
2019-01-15T06:33:18.910Z,23.90
2019-01-15T06:35:48.002Z,23.90
2019-01-15T06:38:17.088Z,24.00
2019-01-15T06:40:46.171Z,24.00
2019-01-15T06:43:15.203Z,24.00
2019-01-15T06:45:44.273Z,24.00
2019-01-15T06:51:53.311Z,24.00
2019-01-15T06:54:22.328Z,23.90
2019-01-15T06:56:51.434Z,23.90
2019-01-15T06:59:20.501Z,23.80
2019-01-15T07:01:49.573Z,23.80
2019-01-15T07:04:18.662Z,23.70
2019-01-15T07:06:47.722Z,23.70
2019-01-15T07:09:16.825Z,23.70
2019-01-15T07:11:45.949Z,23.70
2019-01-15T07:14:15.037Z,23.70
2019-01-15T07:16:44.169Z,23.70
2019-01-15T07:19:13.357Z,23.70
2019-01-15T07:21:42.643Z,23.70
2019-01-15T07:24:11.807Z,23.70
2019-01-15T07:26:40.891Z,23.70
2019-01-15T07:29:09.958Z,23.70
2019-01-15T07:31:39.062Z,23.70
2019-01-15T07:34:08.138Z,23.70
2019-01-15T07:36:37.219Z,23.70
2019-01-15T07:39:08.441Z,23.70
2019-01-15T07:41:37.518Z,23.70
2019-01-15T07:44:06.559Z,23.70
2019-01-15T07:46:35.612Z,23.70
2019-01-15T07:49:04.781Z,23.70
2019-01-15T07:51:33.882Z,23.70
2019-01-15T07:54:02.855Z,23.70
2019-01-15T07:56:31.913Z,23.70
2019-01-15T07:59:00.959Z,23.60
2019-01-15T08:01:30.205Z,23.60
2019-01-15T08:03:59.281Z,23.60
2019-01-15T08:06:28.253Z,23.60
2019-01-15T08:08:57.357Z,23.60
2019-01-15T08:11:26.440Z,23.60
2019-01-15T08:13:55.545Z,23.60
2019-01-15T08:16:24.659Z,23.60
2019-01-15T08:18:53.835Z,23.60
2019-01-15T08:21:22.912Z,23.60
2019-01-15T08:23:52.003Z,23.60
2019-01-15T08:26:21.087Z,23.60
2019-01-15T08:28:50.178Z,23.60
2019-01-15T08:31:19.255Z,23.60
2019-01-15T08:33:49.073Z,23.60
2019-01-15T08:36:18.213Z,23.60
2019-01-15T08:38:47.312Z,23.60
2019-01-15T08:41:16.380Z,23.60
2019-01-15T08:43:45.462Z,23.50
2019-01-15T08:46:14.520Z,23.50
2019-01-15T08:48:43.626Z,23.50
2019-01-15T08:51:13.041Z,23.50
2019-01-15T08:53:42.606Z,23.50
2019-01-15T08:56:12.158Z,23.50
2019-01-15T08:58:41.107Z,23.50
2019-01-15T09:01:10.061Z,23.50
2019-01-15T09:03:39.128Z,23.50
2019-01-15T09:06:08.209Z,23.50
2019-01-15T09:08:37.278Z,23.50
2019-01-15T09:11:06.405Z,23.50
2019-01-15T09:13:35.483Z,23.50
2019-01-15T09:16:04.562Z,23.50
2019-01-15T09:18:33.649Z,23.50
2019-01-15T09:21:02.763Z,23.50
2019-01-15T09:23:31.853Z,23.50
2019-01-15T09:26:00.916Z,23.40
2019-01-15T09:28:30.094Z,23.40
2019-01-15T09:30:59.255Z,23.40
2019-01-15T09:33:28.326Z,23.50
2019-01-15T09:35:57.399Z,23.50
2019-01-15T09:38:26.442Z,23.40
2019-01-15T09:40:55.522Z,23.40
2019-01-15T09:43:24.607Z,23.40
2019-01-15T09:45:53.785Z,23.40
2019-01-15T09:48:29.298Z,23.40
2019-01-15T09:50:58.407Z,23.40
2019-01-15T09:53:27.464Z,23.40
2019-01-15T09:55:56.539Z,23.40
2019-01-15T09:58:25.594Z,23.40
2019-01-15T10:00:54.716Z,23.40
2019-01-15T10:03:23.813Z,23.40
2019-01-15T10:05:52.917Z,23.40
2019-01-15T10:08:21.988Z,23.40
2019-01-15T10:10:51.067Z,23.40
2019-01-15T10:13:20.130Z,23.40
2019-01-15T10:15:49.290Z,23.40
2019-01-15T10:18:18.351Z,23.40
2019-01-15T10:20:47.442Z,23.40
2019-01-15T10:23:16.490Z,23.40
2019-01-15T10:25:46.283Z,23.40
2019-01-15T10:28:15.473Z,23.40
2019-01-15T10:31:10.383Z,23.40
2019-01-15T10:33:47.178Z,23.30
2019-01-15T10:36:14.790Z,23.40
2019-01-15T10:38:43.862Z,23.40
2019-01-15T10:41:12.946Z,23.30
2019-01-15T10:43:42.026Z,23.30
2019-01-15T10:46:11.110Z,23.30
2019-01-15T10:48:40.311Z,23.30
2019-01-15T10:51:09.428Z,23.30
2019-01-15T10:53:38.508Z,23.30
2019-01-15T10:56:07.777Z,23.30
2019-01-15T10:58:37.048Z,23.30
2019-01-15T11:01:06.587Z,23.30
2019-01-15T11:03:35.674Z,23.30
2019-01-15T11:06:05.454Z,23.30
2019-01-15T11:08:34.538Z,23.30
2019-01-15T11:11:03.675Z,23.30
2019-01-15T11:13:32.802Z,23.30
2019-01-15T11:16:01.878Z,23.30
2019-01-15T11:18:30.861Z,23.30
2019-01-15T11:20:59.927Z,23.30
2019-01-15T11:23:29.030Z,23.30
2019-01-15T11:25:58.085Z,23.30
2019-01-15T11:28:27.164Z,23.30
2019-01-15T11:30:56.238Z,23.30
2019-01-15T11:33:25.333Z,23.30
2019-01-15T11:35:54.418Z,23.30
2019-01-15T11:38:23.534Z,23.30
2019-01-15T11:40:52.598Z,23.30
2019-01-15T11:43:21.688Z,23.30
2019-01-15T11:45:50.801Z,23.30
2019-01-15T11:48:19.882Z,23.30
2019-01-15T11:50:48.866Z,23.30
2019-01-15T11:53:18.056Z,23.20
2019-01-15T11:55:47.063Z,23.30
2019-01-15T11:58:16.230Z,23.20
2019-01-15T12:00:59.434Z,23.20
2019-01-15T12:03:37.390Z,23.20
2019-01-15T12:06:23.870Z,23.20
2019-01-15T12:09:27.140Z,23.20
2019-01-15T12:12:14.389Z,23.20
2019-01-15T12:15:11.322Z,23.20
2019-01-15T12:17:57.882Z,23.20
2019-01-15T12:20:49.044Z,23.20
2019-01-15T12:23:40.205Z,23.20
2019-01-15T12:26:18.374Z,23.10
2019-01-15T12:29:15.173Z,23.10
2019-01-15T12:32:09.475Z,23.20
2019-01-15T12:35:06.728Z,23.20
2019-01-15T12:37:57.893Z,23.10
2019-01-15T12:40:52.039Z,23.10
2019-01-15T12:43:35.139Z,23.10
2019-01-15T12:46:22.409Z,23.10
2019-01-15T12:49:16.575Z,23.10
2019-01-15T12:51:56.003Z,23.10
2019-01-15T12:54:45.241Z,23.10
2019-01-15T12:57:21.987Z,23.10
2019-01-15T13:00:16.223Z,23.10
2019-01-15T13:03:03.115Z,23.00
2019-01-15T13:05:43.639Z,23.00
2019-01-15T13:08:21.778Z,23.00
2019-01-15T13:11:14.104Z,23.10
2019-01-15T13:14:02.109Z,23.10
2019-01-15T13:16:48.862Z,23.00
2019-01-15T13:19:35.610Z,23.00
2019-01-15T13:22:22.328Z,23.00
2019-01-15T13:25:09.162Z,23.00
2019-01-15T13:28:06.315Z,23.00
2019-01-15T13:30:53.600Z,23.00
2019-01-15T13:33:36.878Z,23.00
2019-01-15T13:36:34.543Z,23.00
2019-01-15T13:39:22.534Z,23.00
2019-01-15T13:42:15.072Z,23.00
2019-01-15T13:45:05.679Z,23.00
2019-01-15T13:47:49.035Z,23.00
2019-01-15T13:50:28.956Z,23.00
2019-01-15T13:53:34.979Z,22.90
2019-01-15T13:56:38.475Z,22.90
2019-01-15T13:59:44.533Z,23.00
2019-01-15T14:02:32.733Z,22.90
2019-01-15T14:05:20.555Z,22.90
2019-01-15T14:08:02.614Z,22.90
2019-01-15T14:10:45.318Z,22.90
2019-01-15T14:13:32.086Z,22.90
2019-01-15T14:16:22.350Z,22.90
2019-01-15T14:19:19.214Z,22.90
2019-01-15T14:22:07.887Z,22.90
2019-01-15T14:25:02.023Z,22.90
2019-01-15T14:27:55.907Z,22.80
2019-01-15T14:30:42.686Z,22.90
2019-01-15T14:33:30.841Z,22.90
2019-01-15T14:36:17.381Z,22.90
2019-01-15T14:39:23.654Z,22.80
2019-01-15T14:42:11.782Z,22.80
2019-01-15T14:45:17.787Z,22.80
2019-01-15T14:48:01.723Z,22.80
2019-01-15T14:51:04.750Z,22.80
2019-01-15T14:53:58.931Z,22.80
2019-01-15T14:56:41.334Z,22.80
2019-01-15T14:59:28.318Z,22.80
2019-01-15T15:02:19.208Z,22.80
2019-01-15T15:05:22.234Z,22.80
2019-01-15T15:08:08.946Z,22.80
2019-01-15T15:10:44.471Z,22.80
2019-01-15T15:13:35.463Z,22.70
2019-01-15T15:16:35.498Z,22.80
2019-01-15T15:19:18.839Z,22.70
2019-01-15T15:22:12.843Z,22.70
2019-01-15T15:24:59.674Z,22.70
2019-01-15T15:27:46.473Z,22.70
2019-01-15T15:30:34.563Z,22.70
2019-01-15T15:33:31.727Z,22.70
2019-01-15T15:36:28.400Z,22.70
2019-01-15T15:39:16.512Z,22.70
2019-01-15T15:42:19.826Z,22.70
2019-01-15T15:45:07.566Z,22.60
2019-01-15T15:47:50.691Z,22.70
2019-01-15T15:50:29.755Z,22.60
2019-01-15T15:53:20.877Z,22.70
2019-01-15T15:56:20.840Z,22.70
2019-01-15T15:59:00.755Z,22.60
2019-01-15T16:01:41.703Z,22.60
2019-01-15T16:04:28.506Z,22.60
2019-01-15T16:07:15.273Z,22.60
2019-01-15T16:10:06.480Z,22.60
2019-01-15T16:13:00.530Z,22.60
2019-01-15T16:15:36.258Z,22.60
2019-01-15T16:18:13.730Z,22.60
2019-01-15T16:21:05.862Z,22.60
2019-01-15T16:23:52.665Z,22.50
2019-01-15T16:26:43.914Z,22.50
2019-01-15T16:29:34.825Z,22.50
2019-01-15T16:32:40.449Z,22.60
2019-01-15T16:35:22.857Z,22.50
2019-01-15T16:38:23.119Z,22.50
2019-01-15T16:41:13.990Z,22.50
2019-01-15T16:44:07.883Z,22.50
2019-01-15T16:47:04.826Z,22.60
2019-01-15T16:49:42.949Z,22.50
2019-01-15T16:52:36.857Z,22.50
2019-01-15T16:55:22.666Z,22.50
2019-01-15T16:58:16.695Z,22.50
2019-01-15T17:01:20.054Z,22.50
2019-01-15T17:04:10.956Z,22.40
2019-01-15T17:07:14.230Z,22.50
2019-01-15T17:10:14.425Z,22.40
2019-01-15T17:13:14.468Z,22.40
2019-01-15T17:16:02.585Z,22.40
2019-01-15T17:18:54.688Z,22.40
2019-01-15T17:25:28.357Z,22.40
2019-01-15T17:28:07.291Z,22.40
2019-01-15T17:30:48.686Z,22.40
2019-01-15T17:33:42.133Z,22.40
2019-01-15T17:36:36.154Z,22.40
2019-01-15T17:39:25.967Z,22.40
2019-01-15T17:42:14.069Z,22.40
2019-01-15T17:44:55.900Z,22.40
2019-01-15T17:47:49.813Z,22.40
2019-01-15T17:50:37.946Z,22.30
2019-01-15T17:53:23.540Z,22.30
2019-01-15T17:56:10.341Z,22.30
2019-01-15T17:59:04.446Z,22.30
2019-01-15T18:01:48.204Z,22.30
2019-01-15T18:04:31.386Z,22.30
2019-01-15T18:07:13.962Z,22.30
2019-01-15T18:10:10.988Z,22.30
2019-01-15T18:13:10.926Z,22.30
2019-01-15T18:15:57.476Z,22.30
2019-01-15T18:18:45.574Z,22.30
2019-01-15T18:21:45.792Z,22.30
2019-01-15T18:24:31.578Z,22.30
2019-01-15T18:27:22.470Z,22.30
2019-01-15T18:30:12.330Z,22.30
2019-01-15T18:33:15.626Z,22.30
2019-01-15T18:36:04.891Z,22.30
2019-01-15T18:38:52.340Z,22.30
2019-01-15T18:41:46.478Z,22.30
2019-01-15T18:44:40.363Z,22.30
2019-01-15T18:47:46.670Z,22.20
2019-01-15T18:50:34.829Z,22.20
2019-01-15T18:53:21.093Z,22.20
2019-01-15T18:56:00.453Z,22.20
2019-01-15T18:58:53.589Z,22.20
2019-01-15T19:01:40.953Z,22.20
2019-01-15T19:04:27.099Z,22.20
2019-01-15T19:07:13.628Z,22.20
2019-01-15T19:10:07.782Z,22.20
2019-01-15T19:12:53.627Z,22.20
2019-01-15T19:15:47.903Z,22.20
2019-01-15T19:18:39.087Z,22.20
2019-01-15T19:21:34.364Z,22.20
2019-01-15T19:24:17.454Z,22.20
2019-01-15T19:27:20.851Z,22.20
2019-01-15T19:30:09.381Z,22.10
2019-01-15T19:32:55.886Z,22.20
2019-01-15T19:35:50.164Z,22.10
2019-01-15T19:38:31.484Z,22.10
2019-01-15T19:41:11.384Z,22.10
2019-01-15T19:43:57.878Z,22.10
2019-01-15T19:46:44.649Z,22.10
2019-01-15T19:49:32.782Z,22.10
2019-01-15T19:52:19.342Z,22.10
2019-01-15T19:58:13.606Z,22.10
2019-01-15T20:00:58.162Z,22.10
2019-01-15T20:03:40.846Z,22.00
2019-01-15T20:06:25.799Z,22.00
2019-01-15T20:09:19.854Z,22.00
2019-01-15T20:12:23.290Z,22.00
2019-01-15T20:15:06.274Z,22.00
2019-01-15T20:17:57.205Z,21.90
2019-01-15T20:20:44.328Z,22.00
2019-01-15T20:23:30.943Z,21.90
2019-01-15T20:26:31.147Z,21.90
2019-01-15T20:29:34.228Z,21.90
2019-01-15T20:32:22.511Z,21.90
2019-01-15T20:35:12.274Z,21.90
2019-01-15T20:37:51.910Z,21.90
2019-01-15T20:40:40.095Z,21.90
2019-01-15T20:43:26.742Z,21.90
2019-01-15T20:46:27.130Z,21.90
2019-01-15T20:49:14.373Z,21.90
2019-01-15T20:52:01.504Z,21.80
2019-01-15T20:55:05.597Z,21.80
2019-01-15T20:57:53.826Z,21.80
2019-01-15T21:00:40.604Z,21.90
2019-01-15T21:03:29.148Z,21.80
2019-01-15T21:06:20.413Z,21.80
2019-01-15T21:09:11.379Z,21.80
2019-01-15T21:11:58.483Z,21.80
2019-01-15T21:15:01.535Z,21.80
2019-01-15T21:17:52.674Z,21.80
2019-01-15T21:20:38.783Z,21.80
2019-01-15T21:23:25.307Z,21.80
2019-01-15T21:26:11.498Z,21.80
2019-01-15T21:29:05.617Z,21.80
2019-01-15T21:31:44.078Z,21.80
2019-01-15T21:34:26.753Z,21.80
2019-01-15T21:37:14.841Z,21.80
2019-01-15T21:40:21.129Z,21.80
2019-01-15T21:43:09.214Z,21.80
2019-01-15T21:46:07.429Z,21.80
2019-01-15T21:49:05.119Z,21.80
2019-01-15T21:51:54.905Z,21.80
2019-01-15T21:54:45.795Z,21.80
2019-01-15T21:57:27.474Z,21.90
2019-01-15T22:00:18.729Z,21.80
2019-01-15T22:03:09.583Z,21.80
2019-01-15T22:05:50.104Z,21.90
2019-01-15T22:08:36.733Z,21.90
2019-01-15T22:11:23.478Z,21.90
2019-01-15T22:14:17.600Z,21.90
2019-01-15T22:17:08.457Z,21.90
2019-01-15T22:20:08.759Z,21.90
2019-01-15T22:22:55.411Z,21.90
2019-01-15T22:25:42.214Z,21.90
2019-01-15T22:28:33.310Z,21.90
2019-01-15T22:31:27.362Z,21.90
2019-01-15T22:34:15.782Z,21.90
2019-01-15T22:37:09.935Z,21.90
2019-01-15T22:39:49.374Z,21.90
2019-01-15T22:42:40.515Z,21.90
2019-01-15T22:45:41.208Z,21.90
2019-01-15T22:48:31.622Z,21.90
2019-01-15T22:51:13.828Z,21.90
2019-01-15T22:54:00.325Z,21.90
2019-01-15T22:56:46.014Z,21.90
2019-01-15T22:59:39.946Z,22.00
2019-01-15T23:02:36.934Z,21.90
2019-01-15T23:05:40.430Z,22.00
2019-01-15T23:08:26.840Z,22.00
2019-01-15T23:11:11.369Z,22.00
2019-01-15T23:13:53.866Z,22.00
2019-01-15T23:16:35.317Z,22.00
2019-01-15T23:19:15.926Z,22.00
2019-01-15T23:22:02.736Z,22.00
2019-01-15T23:24:47.843Z,22.00
2019-01-15T23:27:34.289Z,22.00
2019-01-15T23:30:25.799Z,22.10
2019-01-15T23:33:23.062Z,22.10
2019-01-15T23:36:11.257Z,22.10
2019-01-15T23:38:54.074Z,22.10
2019-01-15T23:41:40.782Z,22.10
2019-01-15T23:44:27.617Z,22.20
2019-01-15T23:47:24.842Z,22.20
2019-01-15T23:50:12.053Z,22.20
2019-01-15T23:53:09.087Z,22.20
2019-01-15T23:55:57.197Z,22.20
2019-01-15T23:58:57.046Z,22.20
